createdAt,value
2022-11-29T00:01:40.613Z,4.20
2022-11-29T00:04:07.856Z,4.21
2022-11-29T00:06:36.186Z,4.23
2022-11-29T00:09:11.804Z,4.21
2022-11-29T00:11:58.992Z,4.16
2022-11-29T00:14:27.575Z,4.19
2022-11-29T00:17:01.877Z,4.24
2022-11-29T00:19:31.346Z,4.28
2022-11-29T00:21:59.723Z,4.29
2022-11-29T00:24:28.712Z,4.24
2022-11-29T00:26:55.954Z,4.25
2022-11-29T00:29:23.176Z,4.20
2022-11-29T00:31:50.342Z,4.15
2022-11-29T00:34:17.471Z,4.14
2022-11-29T00:36:44.644Z,4.06
2022-11-29T00:39:12.467Z,4.06
2022-11-29T00:41:40.353Z,4.12
2022-11-29T00:44:08.496Z,4.11
2022-11-29T00:46:35.972Z,4.10
2022-11-29T00:49:03.713Z,4.10
2022-11-29T00:51:30.940Z,4.08
2022-11-29T00:53:58.184Z,4.09
2022-11-29T00:56:25.659Z,4.11
2022-11-29T00:58:52.979Z,4.13
2022-11-29T01:01:20.342Z,4.16
2022-11-29T01:03:48.004Z,4.12
2022-11-29T01:06:17.839Z,4.08
2022-11-29T01:08:45.850Z,3.99
2022-11-29T01:11:25.778Z,3.98
2022-11-29T01:14:00.239Z,3.98
2022-11-29T01:16:30.560Z,3.99
2022-11-29T01:18:57.946Z,4.01
2022-11-29T01:21:25.426Z,3.95
2022-11-29T01:23:54.397Z,3.88
2022-11-29T01:26:26.880Z,3.87
2022-11-29T01:28:57.285Z,3.78
2022-11-29T01:31:33.270Z,3.66
2022-11-29T01:34:04.490Z,3.60
2022-11-29T01:36:32.351Z,3.64
2022-11-29T01:39:05.658Z,3.72
2022-11-29T01:41:37.072Z,3.71
2022-11-29T01:44:28.427Z,3.67
2022-11-29T01:46:57.344Z,3.55
2022-11-29T01:49:48.686Z,3.47
2022-11-29T01:52:28.646Z,3.42
2022-11-29T01:55:04.504Z,3.39
2022-11-29T01:57:34.917Z,3.32
2022-11-29T02:00:11.424Z,3.31
2022-11-29T02:03:14.845Z,3.20
2022-11-29T02:05:53.369Z,3.24
2022-11-29T02:08:37.686Z,3.26
2022-11-29T02:11:56.440Z,3.17
2022-11-29T02:14:51.397Z,3.14
2022-11-29T02:18:06.648Z,3.07
2022-11-29T02:21:31.621Z,2.97
2022-11-29T02:24:48.105Z,2.95
2022-11-29T02:27:53.693Z,2.83
2022-11-29T02:30:55.848Z,2.83
2022-11-29T02:34:44.084Z,2.86
2022-11-29T02:38:17.252Z,2.77
2022-11-29T02:41:36.971Z,2.76
2022-11-29T02:44:41.741Z,2.90
2022-11-29T02:47:24.249Z,2.85
2022-11-29T02:50:46.748Z,2.81
2022-11-29T02:53:52.492Z,2.83
2022-11-29T02:56:37.141Z,2.88
2022-11-29T02:59:42.998Z,2.94
2022-11-29T03:03:00.146Z,2.97
2022-11-29T03:06:35.960Z,2.95
2022-11-29T03:09:36.840Z,3.01
2022-11-29T03:12:30.901Z,3.04
2022-11-29T03:15:22.698Z,3.01
2022-11-29T03:18:51.512Z,3.05
2022-11-29T03:21:34.541Z,3.02
2022-11-29T03:24:11.991Z,3.06
2022-11-29T03:26:49.931Z,3.01
2022-11-29T03:29:47.823Z,2.77
2022-11-29T03:32:51.003Z,2.64
2022-11-29T03:35:59.036Z,2.65
2022-11-29T03:38:43.828Z,2.69
2022-11-29T03:42:07.710Z,2.79
2022-11-29T03:45:05.975Z,2.92
2022-11-29T03:47:51.583Z,2.95
2022-11-29T03:50:33.348Z,3.02
2022-11-29T03:53:34.119Z,3.06
2022-11-29T03:56:23.104Z,3.09
2022-11-29T03:59:27.007Z,3.15
2022-11-29T04:02:28.738Z,3.09
2022-11-29T04:05:29.789Z,2.94
2022-11-29T04:08:28.044Z,2.80
2022-11-29T04:12:12.927Z,2.77
2022-11-29T04:14:51.209Z,2.75
2022-11-29T04:18:07.236Z,2.72
2022-11-29T04:20:49.301Z,2.74
2022-11-29T04:23:41.164Z,2.79
2022-11-29T04:27:20.509Z,2.80
2022-11-29T04:30:18.313Z,2.88
2022-11-29T04:33:30.925Z,2.84
2022-11-29T04:37:03.707Z,2.81
2022-11-29T04:39:49.171Z,2.84
2022-11-29T04:42:37.249Z,2.89
2022-11-29T04:45:36.464Z,3.06
2022-11-29T04:48:56.496Z,3.13
2022-11-29T04:51:51.711Z,3.27
2022-11-29T04:54:57.238Z,3.28
2022-11-29T04:57:47.582Z,3.31
2022-11-29T05:00:24.930Z,3.30
2022-11-29T05:03:06.507Z,3.20
2022-11-29T05:06:23.825Z,3.27
2022-11-29T05:09:03.861Z,3.30
2022-11-29T05:12:05.535Z,3.37
2022-11-29T05:15:43.435Z,3.42
2022-11-29T05:18:56.603Z,3.41
2022-11-29T05:22:19.867Z,3.35
2022-11-29T05:25:27.812Z,3.29
2022-11-29T05:28:10.693Z,3.28
2022-11-29T05:31:26.888Z,3.29
2022-11-29T05:34:34.748Z,3.24
2022-11-29T05:37:49.023Z,3.34
2022-11-29T05:41:06.818Z,3.28
2022-11-29T05:44:16.928Z,3.23
2022-11-29T05:47:04.754Z,3.23
2022-11-29T05:49:53.717Z,3.23
2022-11-29T05:52:50.125Z,3.22
2022-11-29T05:55:55.083Z,3.20
2022-11-29T05:59:11.920Z,3.22
2022-11-29T06:02:29.488Z,3.23
2022-11-29T06:06:07.065Z,3.22
2022-11-29T06:08:48.843Z,3.22
2022-11-29T06:11:33.832Z,3.23
2022-11-29T06:14:53.469Z,3.37
2022-11-29T06:18:08.693Z,3.36
2022-11-29T06:20:47.621Z,3.40
2022-11-29T06:24:27.392Z,3.45
2022-11-29T06:27:50.516Z,3.41
2022-11-29T06:30:26.709Z,3.44
2022-11-29T06:33:28.907Z,3.50
2022-11-29T06:36:23.413Z,3.58
2022-11-29T06:38:50.990Z,3.62
2022-11-29T06:41:24.465Z,3.58
2022-11-29T06:43:52.196Z,3.59
2022-11-29T06:46:47.364Z,3.63
2022-11-29T06:49:55.852Z,3.64
2022-11-29T06:52:51.737Z,3.68
2022-11-29T06:55:54.926Z,3.68
2022-11-29T06:59:04.391Z,3.72
2022-11-29T07:02:42.724Z,3.77
2022-11-29T07:05:40.780Z,3.79
2022-11-29T07:08:26.572Z,3.83
2022-11-29T07:10:55.599Z,3.86
2022-11-29T07:13:23.558Z,3.87
2022-11-29T07:16:55.826Z,3.89
2022-11-29T07:19:51.559Z,3.84
2022-11-29T07:22:55.136Z,3.84
2022-11-29T07:26:10.711Z,3.87
2022-11-29T07:29:08.019Z,3.87
2022-11-29T07:31:48.293Z,3.89
2022-11-29T07:35:17.466Z,3.92
2022-11-29T07:38:09.972Z,3.91
2022-11-29T07:41:27.791Z,3.96
2022-11-29T07:44:31.187Z,3.95
2022-11-29T07:46:58.411Z,3.99
2022-11-29T07:49:25.672Z,4.07
2022-11-29T07:51:55.118Z,4.13
2022-11-29T07:54:23.072Z,4.17
2022-11-29T07:56:50.306Z,4.22
2022-11-29T07:59:17.557Z,4.29
2022-11-29T08:01:44.801Z,4.17
2022-11-29T08:04:12.057Z,4.13
2022-11-29T08:06:39.490Z,4.15
2022-11-29T08:09:07.744Z,4.17
2022-11-29T08:11:35.055Z,4.21
2022-11-29T08:14:05.032Z,4.22
2022-11-29T08:16:32.928Z,4.28
2022-11-29T08:19:00.677Z,4.41
2022-11-29T08:21:28.191Z,4.40
2022-11-29T08:23:55.436Z,4.42
2022-11-29T08:26:25.610Z,4.42
2022-11-29T08:28:55.708Z,4.42
2022-11-29T08:31:22.922Z,4.45
2022-11-29T08:33:50.162Z,4.52
2022-11-29T08:36:20.158Z,4.56
2022-11-29T08:38:48.258Z,4.59
2022-11-29T08:41:17.765Z,4.59
2022-11-29T08:43:45.196Z,4.62
2022-11-29T08:46:18.248Z,4.63
2022-11-29T08:48:47.538Z,4.70
2022-11-29T08:51:15.320Z,4.86
2022-11-29T08:53:42.723Z,4.92
2022-11-29T08:57:04.448Z,5.05
2022-11-29T08:59:06.210Z,5.21
2022-11-29T09:01:33.520Z,5.20
2022-11-29T09:04:03.001Z,5.11
2022-11-29T09:06:40.615Z,5.09
2022-11-29T09:09:08.315Z,5.09
2022-11-29T09:11:36.636Z,5.09
2022-11-29T09:14:07.733Z,5.14
2022-11-29T09:16:38.321Z,5.24
2022-11-29T09:19:06.641Z,5.34
2022-11-29T09:21:36.719Z,5.35
2022-11-29T09:24:06.655Z,5.41
2022-11-29T09:26:37.850Z,5.47
2022-11-29T09:29:06.755Z,5.57
2022-11-29T09:31:35.133Z,5.62
2022-11-29T09:34:02.512Z,5.49
2022-11-29T09:36:31.515Z,5.56
2022-11-29T09:39:02.726Z,5.46
2022-11-29T09:42:07.798Z,5.47
2022-11-29T09:44:46.724Z,5.63
2022-11-29T09:47:36.056Z,5.68
2022-11-29T09:50:35.688Z,5.68
2022-11-29T09:53:48.996Z,5.67
2022-11-29T09:56:33.177Z,5.58
2022-11-29T09:59:22.716Z,5.62
2022-11-29T10:02:48.107Z,5.78
2022-11-29T10:05:44.111Z,5.75
2022-11-29T10:08:36.896Z,5.79
2022-11-29T10:11:35.136Z,5.92
2022-11-29T10:14:16.586Z,5.84
2022-11-29T10:17:03.952Z,5.76
2022-11-29T10:19:47.547Z,5.82
2022-11-29T10:22:54.471Z,5.89
2022-11-29T10:25:51.509Z,5.99
2022-11-29T10:28:32.441Z,6.02
2022-11-29T10:31:25.251Z,6.08
2022-11-29T10:33:54.944Z,6.02
2022-11-29T10:36:47.589Z,5.99
2022-11-29T10:39:44.566Z,6.18
2022-11-29T10:42:40.851Z,6.04
2022-11-29T10:45:38.822Z,5.96
2022-11-29T10:48:19.951Z,6.11
2022-11-29T10:50:51.235Z,6.21
2022-11-29T10:53:30.606Z,6.21
2022-11-29T10:56:07.645Z,6.24
2022-11-29T10:58:35.803Z,6.04
2022-11-29T11:01:07.070Z,5.95
2022-11-29T11:04:07.436Z,6.18
2022-11-29T11:06:57.629Z,6.21
2022-11-29T11:09:48.852Z,6.24
2022-11-29T11:12:16.075Z,6.39
2022-11-29T11:14:45.229Z,6.39
2022-11-29T11:17:33.870Z,6.30
2022-11-29T11:20:08.682Z,6.19
2022-11-29T11:22:39.837Z,6.17
2022-11-29T11:25:31.428Z,6.24
2022-11-29T11:28:25.098Z,6.38
2022-11-29T11:31:08.404Z,6.56
2022-11-29T11:33:44.988Z,6.49
2022-11-29T11:36:24.523Z,6.50
2022-11-29T11:39:17.765Z,6.67
2022-11-29T11:42:05.467Z,6.46
2022-11-29T11:44:52.472Z,6.42
2022-11-29T11:47:26.151Z,6.47
2022-11-29T11:50:06.674Z,6.68
2022-11-29T11:52:53.832Z,6.81
2022-11-29T11:55:43.513Z,6.90
2022-11-29T11:58:13.701Z,6.76
2022-11-29T12:01:05.690Z,6.48
2022-11-29T12:04:17.992Z,6.64
2022-11-29T12:07:10.031Z,6.73
2022-11-29T12:09:55.771Z,6.79
2022-11-29T12:12:37.095Z,6.75
2022-11-29T12:15:38.115Z,6.77
2022-11-29T12:18:42.477Z,6.82
2022-11-29T12:21:23.728Z,6.92
2022-11-29T12:24:34.526Z,6.95
2022-11-29T12:27:05.626Z,6.46
2022-11-29T12:29:35.119Z,6.63
2022-11-29T12:32:33.808Z,6.67
2022-11-29T12:35:52.965Z,6.71
2022-11-29T12:38:49.948Z,6.73
2022-11-29T12:41:47.257Z,6.72
2022-11-29T12:44:55.909Z,6.74
2022-11-29T12:47:55.624Z,6.74
2022-11-29T12:50:58.708Z,6.78
2022-11-29T12:53:51.883Z,6.77
2022-11-29T12:56:36.948Z,6.75
2022-11-29T13:00:03.675Z,6.78
2022-11-29T13:03:21.632Z,6.74
2022-11-29T13:05:57.488Z,6.74
2022-11-29T13:08:55.965Z,6.74
2022-11-29T13:11:32.137Z,6.69
2022-11-29T13:14:43.186Z,6.66
2022-11-29T13:17:41.211Z,6.73
2022-11-29T13:20:36.092Z,6.72
2022-11-29T13:24:07.234Z,6.69
2022-11-29T13:26:27.828Z,6.72
2022-11-29T13:28:56.233Z,6.74
2022-11-29T13:31:25.569Z,6.69
2022-11-29T13:34:13.293Z,6.56
2022-11-29T13:37:20.545Z,6.57
2022-11-29T13:40:38.101Z,6.60
2022-11-29T13:43:35.360Z,6.57
2022-11-29T13:46:36.447Z,6.46
2022-11-29T13:49:03.818Z,6.36
2022-11-29T13:51:41.099Z,6.35
2022-11-29T13:54:33.596Z,6.33
2022-11-29T13:57:09.685Z,6.27
2022-11-29T13:59:44.293Z,6.26
2022-11-29T14:02:31.168Z,6.24
2022-11-29T14:04:58.946Z,6.18
2022-11-29T14:07:26.213Z,6.09
2022-11-29T14:10:07.083Z,6.07
2022-11-29T14:12:50.731Z,6.06
2022-11-29T14:15:33.560Z,6.07
2022-11-29T14:18:08.216Z,6.15
2022-11-29T14:20:45.103Z,6.04
2022-11-29T14:23:34.772Z,6.02
2022-11-29T14:26:01.798Z,5.88
2022-11-29T14:28:39.745Z,5.84
2022-11-29T14:31:10.702Z,5.80
2022-11-29T14:33:47.039Z,5.81
2022-11-29T14:36:54.693Z,5.74
2022-11-29T14:39:46.954Z,5.74
2022-11-29T14:42:20.920Z,5.74
2022-11-29T14:45:00.657Z,5.64
2022-11-29T14:47:38.855Z,5.52
2022-11-29T14:50:10.361Z,5.51
2022-11-29T14:52:51.465Z,5.48
2022-11-29T14:55:21.242Z,5.56
2022-11-29T14:57:48.377Z,5.55
2022-11-29T15:00:32.402Z,5.52
2022-11-29T15:03:37.795Z,5.50
2022-11-29T15:06:14.130Z,5.48
2022-11-29T15:09:03.957Z,5.43
2022-11-29T15:11:48.021Z,5.31
2022-11-29T15:15:19.665Z,5.22
2022-11-29T15:18:24.664Z,5.17
2022-11-29T15:21:43.568Z,5.19
2022-11-29T15:24:15.833Z,5.16
2022-11-29T15:27:12.841Z,5.07
2022-11-29T15:29:39.977Z,5.03
2022-11-29T15:32:12.831Z,4.97
2022-11-29T15:34:50.367Z,4.94
2022-11-29T15:37:36.475Z,4.90
2022-11-29T15:40:17.159Z,4.90
2022-11-29T15:43:19.306Z,4.89
2022-11-29T15:45:51.411Z,4.83
2022-11-29T15:48:29.105Z,4.78
2022-11-29T15:51:20.797Z,4.74
2022-11-29T15:54:43.444Z,4.78
2022-11-29T15:57:30.121Z,4.78
2022-11-29T16:00:02.241Z,4.78
2022-11-29T16:02:38.091Z,4.81
2022-11-29T16:05:30.914Z,4.80
2022-11-29T16:08:05.298Z,4.80
2022-11-29T16:10:43.612Z,4.81
2022-11-29T16:13:35.789Z,4.85
2022-11-29T16:16:15.500Z,4.87
2022-11-29T16:18:46.626Z,4.88
2022-11-29T16:21:32.114Z,4.85
2022-11-29T16:24:18.488Z,4.89
2022-11-29T16:26:47.212Z,4.87
2022-11-29T16:29:34.851Z,4.88
2022-11-29T16:32:28.601Z,4.86
2022-11-29T16:35:06.029Z,4.88
2022-11-29T16:37:44.060Z,4.85
2022-11-29T16:40:26.323Z,4.89
2022-11-29T16:43:24.073Z,4.88
2022-11-29T16:46:20.171Z,4.90
2022-11-29T16:48:57.274Z,4.84
2022-11-29T16:51:38.648Z,4.81
2022-11-29T16:54:31.689Z,4.81
2022-11-29T16:56:58.920Z,4.81
2022-11-29T16:59:28.401Z,4.80
2022-11-29T17:01:56.922Z,4.76
2022-11-29T17:04:25.651Z,4.72
2022-11-29T17:06:57.423Z,4.67
2022-11-29T17:09:32.450Z,4.66
2022-11-29T17:12:01.480Z,4.67
2022-11-29T17:14:29.592Z,4.61
2022-11-29T17:16:57.575Z,4.48
2022-11-29T17:19:24.940Z,4.55
2022-11-29T17:21:52.978Z,4.53
2022-11-29T17:24:22.865Z,4.49
2022-11-29T17:26:51.188Z,4.57
2022-11-29T17:29:19.001Z,4.56
2022-11-29T17:31:46.984Z,4.54
2022-11-29T17:34:14.301Z,4.49
2022-11-29T17:36:41.892Z,4.48
2022-11-29T17:39:09.353Z,4.43
2022-11-29T17:41:36.889Z,4.36
2022-11-29T17:44:04.776Z,4.32
2022-11-29T17:46:36.330Z,4.27
2022-11-29T17:49:08.476Z,4.24
2022-11-29T17:51:54.224Z,4.27
2022-11-29T17:54:22.973Z,4.33
2022-11-29T17:56:51.456Z,4.32
2022-11-29T17:59:18.954Z,4.23
2022-11-29T18:01:49.328Z,4.22
2022-11-29T18:04:16.822Z,4.20
2022-11-29T18:06:49.395Z,4.21
2022-11-29T18:09:17.830Z,4.25
2022-11-29T18:11:49.346Z,4.27
2022-11-29T18:14:28.220Z,4.30
2022-11-29T18:16:55.804Z,4.30
2022-11-29T18:19:23.398Z,4.31
2022-11-29T18:21:50.947Z,4.29
2022-11-29T18:24:18.843Z,4.26
2022-11-29T18:26:46.872Z,4.25
2022-11-29T18:29:14.350Z,4.22
2022-11-29T18:31:45.891Z,4.18
2022-11-29T18:34:14.775Z,4.16
2022-11-29T18:36:48.620Z,4.14
2022-11-29T18:39:19.740Z,4.07
2022-11-29T18:41:49.988Z,4.08
2022-11-29T18:44:21.523Z,4.06
2022-11-29T18:46:48.864Z,4.03
2022-11-29T18:49:18.203Z,3.93
2022-11-29T18:51:46.829Z,3.84
2022-11-29T18:54:17.152Z,3.76
2022-11-29T18:56:45.998Z,3.69
2022-11-29T18:59:17.356Z,3.64
2022-11-29T19:01:47.905Z,3.61
2022-11-29T19:04:21.072Z,3.55
2022-11-29T19:06:49.315Z,3.45
2022-11-29T19:09:21.286Z,3.43
2022-11-29T19:11:49.719Z,3.40
2022-11-29T19:14:17.820Z,3.35
2022-11-29T19:16:48.371Z,3.41
2022-11-29T19:19:15.620Z,3.49
2022-11-29T19:21:42.805Z,3.42
2022-11-29T19:24:15.587Z,3.34
2022-11-29T19:26:46.280Z,3.30
2022-11-29T19:29:15.123Z,3.26
2022-11-29T19:31:43.192Z,3.27
2022-11-29T19:34:10.907Z,3.28
2022-11-29T19:36:43.853Z,3.26
2022-11-29T19:39:17.463Z,3.40
2022-11-29T19:41:47.787Z,3.41
2022-11-29T19:44:15.424Z,3.33
2022-11-29T19:46:48.396Z,3.34
2022-11-29T19:49:16.338Z,3.40
2022-11-29T19:51:43.585Z,3.43
2022-11-29T19:54:12.377Z,3.41
2022-11-29T19:56:39.852Z,3.36
2022-11-29T19:59:08.846Z,3.32
2022-11-29T20:01:41.314Z,3.34
2022-11-29T20:04:11.154Z,3.31
2022-11-29T20:06:40.269Z,3.32
2022-11-29T20:09:07.805Z,3.35
2022-11-29T20:11:35.597Z,3.36
2022-11-29T20:14:06.090Z,3.34
2022-11-29T20:16:33.841Z,3.34
2022-11-29T20:19:02.180Z,3.35
2022-11-29T20:21:32.833Z,3.29
2022-11-29T20:24:07.593Z,3.26
2022-11-29T20:26:38.429Z,3.23
2022-11-29T20:29:08.294Z,3.20
2022-11-29T20:31:43.066Z,3.12
2022-11-29T20:34:14.824Z,3.08
2022-11-29T20:37:02.089Z,3.06
2022-11-29T20:40:03.909Z,3.03
2022-11-29T20:43:02.804Z,2.93
2022-11-29T20:45:30.412Z,2.93
2022-11-29T20:48:17.698Z,2.90
2022-11-29T20:50:59.780Z,2.92
2022-11-29T20:53:40.564Z,2.91
2022-11-29T20:56:10.748Z,2.90
2022-11-29T20:58:38.910Z,2.95
2022-11-29T21:01:07.410Z,3.00
2022-11-29T21:03:35.062Z,3.02
2022-11-29T21:06:05.528Z,3.04
2022-11-29T21:08:33.945Z,3.12
2022-11-29T21:11:10.133Z,3.19
2022-11-29T21:13:38.521Z,3.22
2022-11-29T21:16:06.806Z,3.29
2022-11-29T21:18:34.698Z,3.34
2022-11-29T21:21:26.976Z,3.40
2022-11-29T21:24:28.679Z,3.46
2022-11-29T21:26:56.175Z,3.46
2022-11-29T21:29:24.308Z,3.45
2022-11-29T21:31:54.164Z,3.43
2022-11-29T21:34:22.320Z,3.40
2022-11-29T21:36:58.994Z,3.42
2022-11-29T21:39:33.383Z,3.35
2022-11-29T21:42:00.808Z,3.27
2022-11-29T21:44:27.968Z,3.18
2022-11-29T21:46:55.443Z,3.08
2022-11-29T21:49:22.694Z,3.05
2022-11-29T21:51:49.981Z,2.98
2022-11-29T21:54:17.271Z,2.91
2022-11-29T21:56:44.433Z,2.88
2022-11-29T21:59:11.596Z,2.87
2022-11-29T22:01:38.976Z,2.94
2022-11-29T22:04:06.236Z,2.92
2022-11-29T22:06:33.541Z,2.87
2022-11-29T22:09:01.061Z,2.81
2022-11-29T22:11:31.353Z,2.76
2022-11-29T22:14:19.855Z,2.65
2022-11-29T22:16:56.037Z,2.58
2022-11-29T22:19:28.560Z,2.58
2022-11-29T22:22:00.381Z,2.59
2022-11-29T22:24:32.057Z,2.57
2022-11-29T22:26:59.669Z,2.53
2022-11-29T22:29:27.268Z,2.51
2022-11-29T22:31:56.593Z,2.44
2022-11-29T22:34:26.636Z,2.48
2022-11-29T22:36:54.616Z,2.62
2022-11-29T22:39:23.924Z,2.68
2022-11-29T22:41:54.591Z,2.51
2022-11-29T22:44:25.865Z,2.48
2022-11-29T22:46:53.227Z,2.48
2022-11-29T22:49:20.727Z,2.54
2022-11-29T22:51:48.212Z,2.53
2022-11-29T22:54:16.334Z,2.48
2022-11-29T22:56:44.978Z,2.42
2022-11-29T22:59:12.919Z,2.43
2022-11-29T23:01:41.942Z,2.39
2022-11-29T23:04:12.057Z,2.40
2022-11-29T23:06:45.588Z,2.30
2022-11-29T23:09:22.196Z,2.19
2022-11-29T23:11:53.890Z,2.02
2022-11-29T23:14:22.708Z,1.97
2022-11-29T23:16:50.293Z,2.08
2022-11-29T23:19:17.851Z,2.18
2022-11-29T23:21:46.155Z,2.08
2022-11-29T23:24:15.307Z,1.97
2022-11-29T23:26:46.758Z,2.05
2022-11-29T23:29:18.425Z,2.07
2022-11-29T23:31:47.027Z,2.05
2022-11-29T23:34:14.720Z,2.02
2022-11-29T23:36:41.958Z,2.04
2022-11-29T23:39:09.304Z,2.05
2022-11-29T23:41:37.019Z,2.01
2022-11-29T23:44:06.204Z,1.88
2022-11-29T23:46:35.165Z,1.70
2022-11-29T23:49:02.616Z,1.54
2022-11-29T23:51:29.907Z,1.64
2022-11-29T23:53:57.051Z,1.72
2022-11-29T23:56:24.185Z,1.74
2022-11-29T23:58:51.417Z,1.62
